sensor_id;sensor_type;location;lat;lon;timestamp;P1;durP1;ratioP1;P2;durP2;ratioP2
54909;SDS011;63189;51.240;9.964;2023-02-17T00:00:03;44.13;;;23.75;;
54909;SDS011;63189;51.240;9.964;2023-02-17T00:02:30;40.08;;;22.40;;
54909;SDS011;63189;51.240;9.964;2023-02-17T00:04:55;51.80;;;26.00;;
54909;SDS011;63189;51.240;9.964;2023-02-17T00:07:22;48.05;;;25.40;;
54909;SDS011;63189;51.240;9.964;2023-02-17T00:09:48;53.38;;;26.60;;
54909;SDS011;63189;51.240;9.964;2023-02-17T00:12:13;56.17;;;25.95;;
54909;SDS011;63189;51.240;9.964;2023-02-17T00:14:39;42.00;;;22.60;;
54909;SDS011;63189;51.240;9.964;2023-02-17T00:17:04;39.13;;;21.95;;
54909;SDS011;63189;51.240;9.964;2023-02-17T00:19:30;47.63;;;26.33;;
54909;SDS011;63189;51.240;9.964;2023-02-17T00:21:57;45.17;;;25.27;;
54909;SDS011;63189;51.240;9.964;2023-02-17T00:24:26;47.53;;;24.88;;
54909;SDS011;63189;51.240;9.964;2023-02-17T00:26:52;45.50;;;25.10;;
54909;SDS011;63189;51.240;9.964;2023-02-17T00:29:18;42.55;;;23.65;;
54909;SDS011;63189;51.240;9.964;2023-02-17T00:31:43;41.67;;;22.77;;
54909;SDS011;63189;51.240;9.964;2023-02-17T00:34:09;48.30;;;24.80;;
54909;SDS011;63189;51.240;9.964;2023-02-17T00:36:35;44.92;;;23.13;;
54909;SDS011;63189;51.240;9.964;2023-02-17T00:39:00;44.13;;;22.58;;
54909;SDS011;63189;51.240;9.964;2023-02-17T00:41:26;38.45;;;20.42;;
54909;SDS011;63189;51.240;9.964;2023-02-17T00:43:53;43.97;;;22.75;;
54909;SDS011;63189;51.240;9.964;2023-02-17T00:46:18;36.25;;;20.23;;
54909;SDS011;63189;51.240;9.964;2023-02-17T00:48:45;40.28;;;19.92;;
54909;SDS011;63189;51.240;9.964;2023-02-17T00:51:12;34.80;;;19.17;;
54909;SDS011;63189;51.240;9.964;2023-02-17T00:53:38;35.50;;;21.38;;
54909;SDS011;63189;51.240;9.964;2023-02-17T00:56:03;34.47;;;21.10;;
54909;SDS011;63189;51.240;9.964;2023-02-17T00:58:29;35.03;;;20.80;;
54909;SDS011;63189;51.240;9.964;2023-02-17T01:00:55;39.85;;;23.00;;
54909;SDS011;63189;51.240;9.964;2023-02-17T01:03:21;35.85;;;19.52;;
54909;SDS011;63189;51.240;9.964;2023-02-17T01:05:47;35.50;;;18.70;;
54909;SDS011;63189;51.240;9.964;2023-02-17T01:08:14;37.05;;;20.38;;
54909;SDS011;63189;51.240;9.964;2023-02-17T01:10:41;38.78;;;22.30;;
54909;SDS011;63189;51.240;9.964;2023-02-17T01:13:08;42.35;;;23.75;;
54909;SDS011;63189;51.240;9.964;2023-02-17T01:15:38;38.38;;;20.85;;
54909;SDS011;63189;51.240;9.964;2023-02-17T01:18:05;38.65;;;21.15;;
54909;SDS011;63189;51.240;9.964;2023-02-17T01:20:33;38.30;;;21.38;;
54909;SDS011;63189;51.240;9.964;2023-02-17T01:22:59;36.90;;;20.50;;
54909;SDS011;63189;51.240;9.964;2023-02-17T01:25:25;34.38;;;19.27;;
54909;SDS011;63189;51.240;9.964;2023-02-17T01:27:50;32.53;;;20.08;;
54909;SDS011;63189;51.240;9.964;2023-02-17T01:30:15;31.13;;;19.55;;
54909;SDS011;63189;51.240;9.964;2023-02-17T01:32:41;32.03;;;19.95;;
54909;SDS011;63189;51.240;9.964;2023-02-17T01:35:06;34.60;;;20.38;;
54909;SDS011;63189;51.240;9.964;2023-02-17T01:37:32;34.50;;;19.67;;
54909;SDS011;63189;51.240;9.964;2023-02-17T01:39:58;32.20;;;19.08;;
54909;SDS011;63189;51.240;9.964;2023-02-17T01:42:23;33.83;;;19.27;;
54909;SDS011;63189;51.240;9.964;2023-02-17T01:47:46;33.70;;;19.08;;
54909;SDS011;63189;51.240;9.964;2023-02-17T01:50:13;33.25;;;19.67;;
54909;SDS011;63189;51.240;9.964;2023-02-17T01:52:40;30.73;;;18.05;;
54909;SDS011;63189;51.240;9.964;2023-02-17T01:55:08;28.75;;;17.15;;
54909;SDS011;63189;51.240;9.964;2023-02-17T01:57:37;30.42;;;19.83;;
54909;SDS011;63189;51.240;9.964;2023-02-17T02:00:06;30.20;;;17.35;;
54909;SDS011;63189;51.240;9.964;2023-02-17T02:02:33;31.48;;;19.40;;
54909;SDS011;63189;51.240;9.964;2023-02-17T02:04:59;34.28;;;20.33;;
54909;SDS011;63189;51.240;9.964;2023-02-17T02:07:27;30.08;;;18.85;;
54909;SDS011;63189;51.240;9.964;2023-02-17T02:09:56;30.23;;;18.40;;
54909;SDS011;63189;51.240;9.964;2023-02-17T02:12:30;26.08;;;15.98;;
54909;SDS011;63189;51.240;9.964;2023-02-17T02:14:59;38.90;;;21.33;;
54909;SDS011;63189;51.240;9.964;2023-02-17T02:20:06;22.33;;;14.50;;
54909;SDS011;63189;51.240;9.964;2023-02-17T02:25:36;25.83;;;16.00;;
54909;SDS011;63189;51.240;9.964;2023-02-17T02:33:57;32.58;;;18.60;;
54909;SDS011;63189;51.240;9.964;2023-02-17T02:38:57;32.55;;;18.63;;
54909;SDS011;63189;51.240;9.964;2023-02-17T02:42:05;32.05;;;19.60;;
54909;SDS011;63189;51.240;9.964;2023-02-17T02:44:25;34.30;;;19.65;;
54909;SDS011;63189;51.240;9.964;2023-02-17T02:47:39;28.60;;;17.55;;
54909;SDS011;63189;51.240;9.964;2023-02-17T02:50:06;45.13;;;24.85;;
54909;SDS011;63189;51.240;9.964;2023-02-17T02:55:24;33.67;;;19.70;;
54909;SDS011;63189;51.240;9.964;2023-02-17T02:58:18;42.40;;;23.75;;
54909;SDS011;63189;51.240;9.964;2023-02-17T03:00:58;32.65;;;19.67;;
54909;SDS011;63189;51.240;9.964;2023-02-17T03:03:34;31.30;;;18.23;;
54909;SDS011;63189;51.240;9.964;2023-02-17T03:06:15;34.85;;;18.35;;
54909;SDS011;63189;51.240;9.964;2023-02-17T03:08:47;33.65;;;20.60;;
54909;SDS011;63189;51.240;9.964;2023-02-17T03:11:20;32.33;;;20.02;;
54909;SDS011;63189;51.240;9.964;2023-02-17T03:14:00;35.45;;;20.20;;
54909;SDS011;63189;51.240;9.964;2023-02-17T03:16:31;37.90;;;21.70;;
54909;SDS011;63189;51.240;9.964;2023-02-17T03:18:57;36.08;;;21.85;;
54909;SDS011;63189;51.240;9.964;2023-02-17T03:21:23;39.22;;;22.90;;
54909;SDS011;63189;51.240;9.964;2023-02-17T03:23:52;35.22;;;20.20;;
54909;SDS011;63189;51.240;9.964;2023-02-17T03:26:17;38.03;;;22.90;;
54909;SDS011;63189;51.240;9.964;2023-02-17T03:28:43;31.98;;;20.50;;
54909;SDS011;63189;51.240;9.964;2023-02-17T03:31:08;42.05;;;21.95;;
54909;SDS011;63189;51.240;9.964;2023-02-17T03:33:33;36.83;;;21.73;;
54909;SDS011;63189;51.240;9.964;2023-02-17T03:35:59;34.35;;;21.98;;
54909;SDS011;63189;51.240;9.964;2023-02-17T03:38:24;46.13;;;24.35;;
54909;SDS011;63189;51.240;9.964;2023-02-17T03:40:49;39.35;;;24.08;;
54909;SDS011;63189;51.240;9.964;2023-02-17T03:43:17;36.90;;;21.15;;
54909;SDS011;63189;51.240;9.964;2023-02-17T03:45:42;41.20;;;21.98;;
54909;SDS011;63189;51.240;9.964;2023-02-17T03:48:07;34.42;;;19.77;;
54909;SDS011;63189;51.240;9.964;2023-02-17T03:50:32;32.83;;;20.00;;
54909;SDS011;63189;51.240;9.964;2023-02-17T03:52:58;33.45;;;21.58;;
54909;SDS011;63189;51.240;9.964;2023-02-17T03:55:23;33.45;;;20.00;;
54909;SDS011;63189;51.240;9.964;2023-02-17T03:57:48;33.47;;;19.67;;
54909;SDS011;63189;51.240;9.964;2023-02-17T04:00:14;33.83;;;21.00;;
54909;SDS011;63189;51.240;9.964;2023-02-17T04:02:39;38.65;;;21.73;;
54909;SDS011;63189;51.240;9.964;2023-02-17T04:05:05;33.72;;;20.70;;
54909;SDS011;63189;51.240;9.964;2023-02-17T04:07:31;30.98;;;18.75;;
54909;SDS011;63189;51.240;9.964;2023-02-17T04:09:56;33.88;;;19.85;;
54909;SDS011;63189;51.240;9.964;2023-02-17T04:12:21;31.85;;;19.83;;
54909;SDS011;63189;51.240;9.964;2023-02-17T04:14:48;28.77;;;18.42;;
54909;SDS011;63189;51.240;9.964;2023-02-17T04:17:13;28.23;;;19.35;;
54909;SDS011;63189;51.240;9.964;2023-02-17T04:19:38;44.95;;;21.00;;
54909;SDS011;63189;51.240;9.964;2023-02-17T04:22:04;34.17;;;20.73;;
54909;SDS011;63189;51.240;9.964;2023-02-17T04:24:33;29.20;;;18.15;;
54909;SDS011;63189;51.240;9.964;2023-02-17T04:27:00;35.08;;;20.55;;
54909;SDS011;63189;51.240;9.964;2023-02-17T04:29:26;32.10;;;19.58;;
54909;SDS011;63189;51.240;9.964;2023-02-17T04:31:51;31.20;;;19.77;;
54909;SDS011;63189;51.240;9.964;2023-02-17T04:34:18;30.65;;;19.48;;
54909;SDS011;63189;51.240;9.964;2023-02-17T04:36:43;31.85;;;19.52;;
54909;SDS011;63189;51.240;9.964;2023-02-17T04:39:09;29.85;;;17.70;;
54909;SDS011;63189;51.240;9.964;2023-02-17T04:41:35;29.05;;;17.92;;
54909;SDS011;63189;51.240;9.964;2023-02-17T04:44:01;28.00;;;17.58;;
54909;SDS011;63189;51.240;9.964;2023-02-17T04:46:26;30.98;;;18.20;;
54909;SDS011;63189;51.240;9.964;2023-02-17T04:48:53;31.58;;;19.38;;
54909;SDS011;63189;51.240;9.964;2023-02-17T04:51:19;28.30;;;18.25;;
54909;SDS011;63189;51.240;9.964;2023-02-17T04:53:44;32.47;;;19.00;;
54909;SDS011;63189;51.240;9.964;2023-02-17T04:56:09;32.17;;;20.30;;
54909;SDS011;63189;51.240;9.964;2023-02-17T04:58:35;31.88;;;19.50;;
54909;SDS011;63189;51.240;9.964;2023-02-17T05:01:01;27.65;;;16.27;;
54909;SDS011;63189;51.240;9.964;2023-02-17T05:03:26;31.02;;;18.52;;
54909;SDS011;63189;51.240;9.964;2023-02-17T05:05:54;28.88;;;19.10;;
54909;SDS011;63189;51.240;9.964;2023-02-17T05:08:19;25.42;;;16.20;;
54909;SDS011;63189;51.240;9.964;2023-02-17T05:10:45;28.95;;;18.02;;
54909;SDS011;63189;51.240;9.964;2023-02-17T05:13:11;31.20;;;18.88;;
54909;SDS011;63189;51.240;9.964;2023-02-17T05:15:37;30.55;;;20.50;;
54909;SDS011;63189;51.240;9.964;2023-02-17T05:18:07;29.77;;;18.45;;
54909;SDS011;63189;51.240;9.964;2023-02-17T05:20:35;23.58;;;15.93;;
54909;SDS011;63189;51.240;9.964;2023-02-17T05:23:00;26.50;;;16.67;;
54909;SDS011;63189;51.240;9.964;2023-02-17T05:25:27;29.25;;;16.42;;
54909;SDS011;63189;51.240;9.964;2023-02-17T05:27:53;29.48;;;18.13;;
54909;SDS011;63189;51.240;9.964;2023-02-17T05:30:18;26.15;;;16.05;;
54909;SDS011;63189;51.240;9.964;2023-02-17T05:32:44;25.52;;;16.25;;
54909;SDS011;63189;51.240;9.964;2023-02-17T05:35:10;25.85;;;17.52;;
54909;SDS011;63189;51.240;9.964;2023-02-17T05:37:36;23.75;;;15.93;;
54909;SDS011;63189;51.240;9.964;2023-02-17T05:40:02;24.55;;;16.30;;
54909;SDS011;63189;51.240;9.964;2023-02-17T05:42:27;25.52;;;16.38;;
54909;SDS011;63189;51.240;9.964;2023-02-17T05:44:56;20.38;;;13.90;;
54909;SDS011;63189;51.240;9.964;2023-02-17T05:47:21;19.63;;;14.00;;
54909;SDS011;63189;51.240;9.964;2023-02-17T05:49:47;23.85;;;15.43;;
54909;SDS011;63189;51.240;9.964;2023-02-17T05:52:12;24.23;;;15.55;;
54909;SDS011;63189;51.240;9.964;2023-02-17T05:54:41;21.58;;;13.40;;
54909;SDS011;63189;51.240;9.964;2023-02-17T05:57:06;24.50;;;15.00;;
54909;SDS011;63189;51.240;9.964;2023-02-17T05:59:31;20.10;;;14.02;;
54909;SDS011;63189;51.240;9.964;2023-02-17T06:01:57;23.48;;;14.57;;
54909;SDS011;63189;51.240;9.964;2023-02-17T06:04:22;21.92;;;14.38;;
54909;SDS011;63189;51.240;9.964;2023-02-17T06:06:47;24.98;;;15.25;;
54909;SDS011;63189;51.240;9.964;2023-02-17T06:09:13;20.55;;;13.63;;
54909;SDS011;63189;51.240;9.964;2023-02-17T06:11:38;19.98;;;14.02;;
54909;SDS011;63189;51.240;9.964;2023-02-17T06:14:03;22.10;;;13.77;;
54909;SDS011;63189;51.240;9.964;2023-02-17T06:16:29;22.50;;;14.35;;
54909;SDS011;63189;51.240;9.964;2023-02-17T06:18:54;19.80;;;12.85;;
54909;SDS011;63189;51.240;9.964;2023-02-17T06:21:19;21.58;;;13.63;;
54909;SDS011;63189;51.240;9.964;2023-02-17T06:23:45;22.30;;;14.18;;
54909;SDS011;63189;51.240;9.964;2023-02-17T06:26:11;21.38;;;13.57;;
54909;SDS011;63189;51.240;9.964;2023-02-17T06:28:36;20.77;;;13.48;;
54909;SDS011;63189;51.240;9.964;2023-02-17T06:31:01;20.77;;;13.23;;
54909;SDS011;63189;51.240;9.964;2023-02-17T06:33:27;19.42;;;11.95;;
54909;SDS011;63189;51.240;9.964;2023-02-17T06:35:52;18.85;;;11.55;;
54909;SDS011;63189;51.240;9.964;2023-02-17T06:38:21;20.02;;;13.25;;
54909;SDS011;63189;51.240;9.964;2023-02-17T06:40:49;17.15;;;11.63;;
54909;SDS011;63189;51.240;9.964;2023-02-17T06:43:14;18.20;;;11.73;;
54909;SDS011;63189;51.240;9.964;2023-02-17T06:45:41;21.20;;;13.73;;
54909;SDS011;63189;51.240;9.964;2023-02-17T06:48:06;19.55;;;12.57;;
54909;SDS011;63189;51.240;9.964;2023-02-17T06:50:32;19.88;;;13.18;;
54909;SDS011;63189;51.240;9.964;2023-02-17T06:52:57;18.25;;;11.95;;
54909;SDS011;63189;51.240;9.964;2023-02-17T06:55:22;20.95;;;13.05;;
54909;SDS011;63189;51.240;9.964;2023-02-17T06:57:48;18.38;;;11.82;;
54909;SDS011;63189;51.240;9.964;2023-02-17T07:00:13;15.57;;;10.30;;
54909;SDS011;63189;51.240;9.964;2023-02-17T07:02:39;17.33;;;10.80;;
54909;SDS011;63189;51.240;9.964;2023-02-17T07:05:04;17.00;;;10.30;;
54909;SDS011;63189;51.240;9.964;2023-02-17T07:07:31;15.68;;;10.77;;
54909;SDS011;63189;51.240;9.964;2023-02-17T07:09:56;15.57;;;10.60;;
54909;SDS011;63189;51.240;9.964;2023-02-17T07:12:21;16.23;;;10.95;;
54909;SDS011;63189;51.240;9.964;2023-02-17T07:14:47;16.40;;;9.98;;
54909;SDS011;63189;51.240;9.964;2023-02-17T07:17:12;16.38;;;10.40;;
54909;SDS011;63189;51.240;9.964;2023-02-17T07:19:37;14.73;;;10.18;;
54909;SDS011;63189;51.240;9.964;2023-02-17T07:22:03;14.65;;;9.57;;
54909;SDS011;63189;51.240;9.964;2023-02-17T07:24:28;16.38;;;9.77;;
54909;SDS011;63189;51.240;9.964;2023-02-17T07:26:53;15.18;;;9.60;;
54909;SDS011;63189;51.240;9.964;2023-02-17T07:29:20;16.35;;;9.82;;
54909;SDS011;63189;51.240;9.964;2023-02-17T07:31:46;12.75;;;9.18;;
54909;SDS011;63189;51.240;9.964;2023-02-17T07:34:11;15.07;;;8.73;;
54909;SDS011;63189;51.240;9.964;2023-02-17T07:36:37;11.75;;;8.40;;
54909;SDS011;63189;51.240;9.964;2023-02-17T07:39:02;12.73;;;8.57;;
54909;SDS011;63189;51.240;9.964;2023-02-17T07:41:29;13.18;;;8.90;;
54909;SDS011;63189;51.240;9.964;2023-02-17T07:43:57;12.93;;;8.80;;
54909;SDS011;63189;51.240;9.964;2023-02-17T07:46:24;11.90;;;8.57;;
54909;SDS011;63189;51.240;9.964;2023-02-17T07:48:49;13.88;;;9.13;;
54909;SDS011;63189;51.240;9.964;2023-02-17T07:51:16;11.50;;;8.02;;
54909;SDS011;63189;51.240;9.964;2023-02-17T07:53:43;10.27;;;7.55;;
54909;SDS011;63189;51.240;9.964;2023-02-17T07:56:09;14.25;;;9.38;;
54909;SDS011;63189;51.240;9.964;2023-02-17T07:58:37;11.70;;;7.60;;
54909;SDS011;63189;51.240;9.964;2023-02-17T08:03:39;13.65;;;8.50;;
54909;SDS011;63189;51.240;9.964;2023-02-17T08:06:09;13.10;;;8.48;;
54909;SDS011;63189;51.240;9.964;2023-02-17T08:08:43;12.23;;;7.95;;
54909;SDS011;63189;51.240;9.964;2023-02-17T08:11:27;11.57;;;7.13;;
54909;SDS011;63189;51.240;9.964;2023-02-17T08:14:12;12.23;;;7.82;;
54909;SDS011;63189;51.240;9.964;2023-02-17T08:16:37;12.57;;;8.57;;
54909;SDS011;63189;51.240;9.964;2023-02-17T08:19:03;12.50;;;7.38;;
54909;SDS011;63189;51.240;9.964;2023-02-17T08:21:28;9.50;;;7.20;;
54909;SDS011;63189;51.240;9.964;2023-02-17T08:23:55;11.23;;;7.53;;
54909;SDS011;63189;51.240;9.964;2023-02-17T08:26:21;9.73;;;7.15;;
54909;SDS011;63189;51.240;9.964;2023-02-17T08:28:46;10.23;;;7.15;;
54909;SDS011;63189;51.240;9.964;2023-02-17T08:31:26;8.70;;;6.55;;
54909;SDS011;63189;51.240;9.964;2023-02-17T08:33:54;10.48;;;7.05;;
54909;SDS011;63189;51.240;9.964;2023-02-17T08:36:21;9.70;;;7.15;;
54909;SDS011;63189;51.240;9.964;2023-02-17T08:38:51;9.63;;;7.05;;
54909;SDS011;63189;51.240;9.964;2023-02-17T08:41:21;14.30;;;7.65;;
54909;SDS011;63189;51.240;9.964;2023-02-17T08:43:47;9.65;;;7.00;;
54909;SDS011;63189;51.240;9.964;2023-02-17T08:46:13;9.90;;;6.45;;
54909;SDS011;63189;51.240;9.964;2023-02-17T08:48:45;10.43;;;7.10;;
54909;SDS011;63189;51.240;9.964;2023-02-17T08:51:14;12.48;;;7.32;;
54909;SDS011;63189;51.240;9.964;2023-02-17T08:53:42;9.07;;;6.43;;
54909;SDS011;63189;51.240;9.964;2023-02-17T08:56:10;9.23;;;7.07;;
54909;SDS011;63189;51.240;9.964;2023-02-17T08:58:38;10.32;;;6.45;;
54909;SDS011;63189;51.240;9.964;2023-02-17T09:01:04;9.80;;;6.35;;
54909;SDS011;63189;51.240;9.964;2023-02-17T09:03:32;10.68;;;6.70;;
54909;SDS011;63189;51.240;9.964;2023-02-17T09:06:02;11.00;;;6.65;;
54909;SDS011;63189;51.240;9.964;2023-02-17T09:08:28;10.57;;;6.32;;
54909;SDS011;63189;51.240;9.964;2023-02-17T09:10:57;9.70;;;6.88;;
54909;SDS011;63189;51.240;9.964;2023-02-17T09:13:25;10.35;;;6.50;;
54909;SDS011;63189;51.240;9.964;2023-02-17T09:15:54;9.55;;;6.78;;
54909;SDS011;63189;51.240;9.964;2023-02-17T09:18:23;8.32;;;6.38;;
54909;SDS011;63189;51.240;9.964;2023-02-17T09:20:56;12.35;;;6.57;;
54909;SDS011;63189;51.240;9.964;2023-02-17T09:23:24;10.98;;;6.72;;
54909;SDS011;63189;51.240;9.964;2023-02-17T09:25:50;10.40;;;6.50;;
54909;SDS011;63189;51.240;9.964;2023-02-17T09:28:26;8.07;;;5.97;;
54909;SDS011;63189;51.240;9.964;2023-02-17T09:30:54;7.97;;;6.00;;
54909;SDS011;63189;51.240;9.964;2023-02-17T09:33:19;9.30;;;5.85;;
54909;SDS011;63189;51.240;9.964;2023-02-17T09:35:45;6.93;;;5.47;;
54909;SDS011;63189;51.240;9.964;2023-02-17T09:38:11;8.07;;;5.32;;
54909;SDS011;63189;51.240;9.964;2023-02-17T09:40:44;7.65;;;5.82;;
54909;SDS011;63189;51.240;9.964;2023-02-17T09:43:24;8.35;;;5.60;;
54909;SDS011;63189;51.240;9.964;2023-02-17T09:45:55;8.50;;;5.88;;
54909;SDS011;63189;51.240;9.964;2023-02-17T09:48:27;9.60;;;5.20;;
54909;SDS011;63189;51.240;9.964;2023-02-17T09:51:03;6.35;;;4.50;;
54909;SDS011;63189;51.240;9.964;2023-02-17T09:53:41;8.98;;;5.72;;
54909;SDS011;63189;51.240;9.964;2023-02-17T09:56:17;7.68;;;5.10;;
54909;SDS011;63189;51.240;9.964;2023-02-17T09:58:56;7.47;;;5.47;;
54909;SDS011;63189;51.240;9.964;2023-02-17T10:01:27;7.18;;;5.07;;
54909;SDS011;63189;51.240;9.964;2023-02-17T10:06:49;7.07;;;5.00;;
54909;SDS011;63189;51.240;9.964;2023-02-17T10:09:41;7.95;;;4.70;;
54909;SDS011;63189;51.240;9.964;2023-02-17T10:12:19;6.18;;;4.30;;
54909;SDS011;63189;51.240;9.964;2023-02-17T10:14:53;6.97;;;5.13;;
54909;SDS011;63189;51.240;9.964;2023-02-17T10:17:36;10.90;;;5.68;;
54909;SDS011;63189;51.240;9.964;2023-02-17T10:20:08;6.40;;;4.60;;
54909;SDS011;63189;51.240;9.964;2023-02-17T10:22:37;6.68;;;4.40;;
54909;SDS011;63189;51.240;9.964;2023-02-17T10:25:18;7.40;;;4.78;;
54909;SDS011;63189;51.240;9.964;2023-02-17T10:28:09;7.78;;;4.90;;
54909;SDS011;63189;51.240;9.964;2023-02-17T10:30:55;6.90;;;4.60;;
54909;SDS011;63189;51.240;9.964;2023-02-17T10:33:28;6.55;;;4.13;;
54909;SDS011;63189;51.240;9.964;2023-02-17T10:39:13;7.63;;;4.63;;
54909;SDS011;63189;51.240;9.964;2023-02-17T10:41:58;6.45;;;4.43;;
54909;SDS011;63189;51.240;9.964;2023-02-17T10:44:25;5.95;;;4.20;;
54909;SDS011;63189;51.240;9.964;2023-02-17T10:46:51;6.93;;;4.30;;
54909;SDS011;63189;51.240;9.964;2023-02-17T10:49:26;6.05;;;4.22;;
54909;SDS011;63189;51.240;9.964;2023-02-17T10:54:27;7.82;;;4.63;;
54909;SDS011;63189;51.240;9.964;2023-02-17T10:56:56;7.22;;;4.70;;
54909;SDS011;63189;51.240;9.964;2023-02-17T10:59:26;6.68;;;5.00;;
54909;SDS011;63189;51.240;9.964;2023-02-17T11:01:56;8.25;;;4.88;;
54909;SDS011;63189;51.240;9.964;2023-02-17T11:04:43;5.78;;;4.32;;
54909;SDS011;63189;51.240;9.964;2023-02-17T11:07:10;7.15;;;4.60;;
54909;SDS011;63189;51.240;9.964;2023-02-17T11:09:48;7.65;;;4.72;;
54909;SDS011;63189;51.240;9.964;2023-02-17T11:12:24;8.40;;;4.38;;
54909;SDS011;63189;51.240;9.964;2023-02-17T11:15:15;7.65;;;4.72;;
54909;SDS011;63189;51.240;9.964;2023-02-17T11:17:43;6.65;;;4.82;;
54909;SDS011;63189;51.240;9.964;2023-02-17T11:22:43;7.28;;;5.38;;
54909;SDS011;63189;51.240;9.964;2023-02-17T11:25:21;8.05;;;5.40;;
54909;SDS011;63189;51.240;9.964;2023-02-17T11:27:50;8.48;;;5.05;;
54909;SDS011;63189;51.240;9.964;2023-02-17T11:30:16;10.48;;;5.68;;
54909;SDS011;63189;51.240;9.964;2023-02-17T11:32:42;7.07;;;4.93;;
54909;SDS011;63189;51.240;9.964;2023-02-17T11:38:14;9.82;;;5.07;;
54909;SDS011;63189;51.240;9.964;2023-02-17T11:40:50;8.07;;;5.90;;
54909;SDS011;63189;51.240;9.964;2023-02-17T11:43:25;6.80;;;5.25;;
54909;SDS011;63189;51.240;9.964;2023-02-17T11:48:33;7.60;;;4.90;;
54909;SDS011;63189;51.240;9.964;2023-02-17T11:51:09;8.40;;;5.03;;
54909;SDS011;63189;51.240;9.964;2023-02-17T11:53:53;7.65;;;4.93;;
54909;SDS011;63189;51.240;9.964;2023-02-17T11:57:00;6.07;;;4.05;;
54909;SDS011;63189;51.240;9.964;2023-02-17T12:02:05;7.18;;;4.32;;
54909;SDS011;63189;51.240;9.964;2023-02-17T12:04:48;6.90;;;4.28;;
54909;SDS011;63189;51.240;9.964;2023-02-17T12:10:42;6.57;;;4.43;;
54909;SDS011;63189;51.240;9.964;2023-02-17T12:16:26;6.55;;;4.22;;
54909;SDS011;63189;51.240;9.964;2023-02-17T12:24:48;5.43;;;3.70;;
54909;SDS011;63189;51.240;9.964;2023-02-17T12:36:13;6.70;;;3.95;;
54909;SDS011;63189;51.240;9.964;2023-02-17T12:44:05;4.80;;;3.10;;
54909;SDS011;63189;51.240;9.964;2023-02-17T12:46:38;5.78;;;3.40;;
54909;SDS011;63189;51.240;9.964;2023-02-17T12:49:16;4.43;;;3.00;;
54909;SDS011;63189;51.240;9.964;2023-02-17T12:51:53;4.95;;;3.17;;
54909;SDS011;63189;51.240;9.964;2023-02-17T13:01:55;3.00;;;2.35;;
54909;SDS011;63189;51.240;9.964;2023-02-17T13:04:24;3.63;;;2.60;;
54909;SDS011;63189;51.240;9.964;2023-02-17T13:06:52;4.32;;;2.40;;
54909;SDS011;63189;51.240;9.964;2023-02-17T13:09:36;3.53;;;2.45;;
54909;SDS011;63189;51.240;9.964;2023-02-17T13:12:15;3.45;;;2.47;;
54909;SDS011;63189;51.240;9.964;2023-02-17T13:14:56;2.90;;;2.03;;
54909;SDS011;63189;51.240;9.964;2023-02-17T13:22:41;3.97;;;2.03;;
54909;SDS011;63189;51.240;9.964;2023-02-17T13:27:51;4.82;;;2.60;;
54909;SDS011;63189;51.240;9.964;2023-02-17T13:32:43;3.72;;;2.13;;
54909;SDS011;63189;51.240;9.964;2023-02-17T13:37:41;2.67;;;2.03;;
54909;SDS011;63189;51.240;9.964;2023-02-17T13:42:42;3.13;;;2.08;;
54909;SDS011;63189;51.240;9.964;2023-02-17T13:45:28;3.08;;;2.28;;
54909;SDS011;63189;51.240;9.964;2023-02-17T13:50:46;3.42;;;2.17;;
54909;SDS011;63189;51.240;9.964;2023-02-17T13:58:52;3.00;;;1.85;;
54909;SDS011;63189;51.240;9.964;2023-02-17T14:01:18;2.85;;;1.92;;
54909;SDS011;63189;51.240;9.964;2023-02-17T14:03:51;2.67;;;2.10;;
54909;SDS011;63189;51.240;9.964;2023-02-17T14:06:27;3.22;;;1.95;;
54909;SDS011;63189;51.240;9.964;2023-02-17T14:08:56;1.77;;;1.58;;
54909;SDS011;63189;51.240;9.964;2023-02-17T14:11:23;2.85;;;2.08;;
54909;SDS011;63189;51.240;9.964;2023-02-17T14:13:52;3.60;;;1.95;;
54909;SDS011;63189;51.240;9.964;2023-02-17T14:16:42;3.03;;;2.17;;
54909;SDS011;63189;51.240;9.964;2023-02-17T14:19:09;3.80;;;1.98;;
54909;SDS011;63189;51.240;9.964;2023-02-17T14:21:40;3.17;;;2.00;;
54909;SDS011;63189;51.240;9.964;2023-02-17T14:24:27;2.22;;;1.77;;
54909;SDS011;63189;51.240;9.964;2023-02-17T14:27:09;2.83;;;1.88;;
54909;SDS011;63189;51.240;9.964;2023-02-17T14:29:40;2.88;;;2.10;;
54909;SDS011;63189;51.240;9.964;2023-02-17T14:35:07;2.42;;;1.60;;
54909;SDS011;63189;51.240;9.964;2023-02-17T14:40:53;2.92;;;1.50;;
54909;SDS011;63189;51.240;9.964;2023-02-17T14:43:21;2.20;;;1.38;;
54909;SDS011;63189;51.240;9.964;2023-02-17T14:45:47;2.25;;;1.60;;
54909;SDS011;63189;51.240;9.964;2023-02-17T14:48:13;2.45;;;1.73;;
54909;SDS011;63189;51.240;9.964;2023-02-17T14:50:40;3.05;;;1.88;;
54909;SDS011;63189;51.240;9.964;2023-02-17T14:53:24;2.63;;;1.70;;
54909;SDS011;63189;51.240;9.964;2023-02-17T14:56:11;3.00;;;1.75;;
54909;SDS011;63189;51.240;9.964;2023-02-17T15:01:33;2.40;;;1.50;;
54909;SDS011;63189;51.240;9.964;2023-02-17T15:04:04;2.40;;;1.70;;
54909;SDS011;63189;51.240;9.964;2023-02-17T15:09:39;5.65;;;2.15;;
54909;SDS011;63189;51.240;9.964;2023-02-17T15:12:19;3.40;;;1.88;;
54909;SDS011;63189;51.240;9.964;2023-02-17T15:14:46;2.15;;;1.65;;
54909;SDS011;63189;51.240;9.964;2023-02-17T15:17:12;3.58;;;2.30;;
54909;SDS011;63189;51.240;9.964;2023-02-17T15:19:39;3.97;;;2.58;;
54909;SDS011;63189;51.240;9.964;2023-02-17T15:22:06;4.38;;;2.28;;
54909;SDS011;63189;51.240;9.964;2023-02-17T15:24:34;3.90;;;2.05;;
54909;SDS011;63189;51.240;9.964;2023-02-17T15:30:50;4.00;;;2.53;;
54909;SDS011;63189;51.240;9.964;2023-02-17T15:33:18;5.32;;;3.30;;
54909;SDS011;63189;51.240;9.964;2023-02-17T15:35:44;2.35;;;1.65;;
54909;SDS011;63189;51.240;9.964;2023-02-17T15:38:18;3.83;;;1.83;;
54909;SDS011;63189;51.240;9.964;2023-02-17T15:40:46;3.17;;;1.70;;
54909;SDS011;63189;51.240;9.964;2023-02-17T15:43:15;1.88;;;1.40;;
54909;SDS011;63189;51.240;9.964;2023-02-17T15:45:46;2.67;;;1.60;;
54909;SDS011;63189;51.240;9.964;2023-02-17T15:48:24;2.35;;;1.67;;
54909;SDS011;63189;51.240;9.964;2023-02-17T15:50:52;3.10;;;1.67;;
54909;SDS011;63189;51.240;9.964;2023-02-17T15:53:20;2.75;;;1.85;;
54909;SDS011;63189;51.240;9.964;2023-02-17T15:55:46;3.42;;;1.92;;
54909;SDS011;63189;51.240;9.964;2023-02-17T15:58:16;3.22;;;1.88;;
54909;SDS011;63189;51.240;9.964;2023-02-17T16:00:44;2.05;;;1.58;;
54909;SDS011;63189;51.240;9.964;2023-02-17T16:03:13;4.22;;;2.40;;
54909;SDS011;63189;51.240;9.964;2023-02-17T16:05:39;3.70;;;2.10;;
54909;SDS011;63189;51.240;9.964;2023-02-17T16:08:06;4.30;;;2.15;;
54909;SDS011;63189;51.240;9.964;2023-02-17T16:10:31;6.03;;;3.15;;
54909;SDS011;63189;51.240;9.964;2023-02-17T16:12:59;2.50;;;1.90;;
54909;SDS011;63189;51.240;9.964;2023-02-17T16:15:28;3.15;;;1.90;;
54909;SDS011;63189;51.240;9.964;2023-02-17T16:17:55;3.78;;;1.80;;
54909;SDS011;63189;51.240;9.964;2023-02-17T16:20:22;3.13;;;1.90;;
54909;SDS011;63189;51.240;9.964;2023-02-17T16:22:50;3.72;;;2.33;;
54909;SDS011;63189;51.240;9.964;2023-02-17T16:25:22;3.65;;;2.50;;
54909;SDS011;63189;51.240;9.964;2023-02-17T16:27:53;3.75;;;2.20;;
54909;SDS011;63189;51.240;9.964;2023-02-17T16:32:59;7.43;;;2.92;;
54909;SDS011;63189;51.240;9.964;2023-02-17T16:35:37;3.10;;;1.88;;
54909;SDS011;63189;51.240;9.964;2023-02-17T16:38:31;2.78;;;2.00;;
54909;SDS011;63189;51.240;9.964;2023-02-17T16:44:04;5.75;;;2.20;;
54909;SDS011;63189;51.240;9.964;2023-02-17T16:46:43;3.40;;;2.50;;